sensor_id;sensor_type;location;lat;lon;timestamp;temperature;humidity
25906;DHT22;13713;52.552;13.204;2023-07-20T00:02:20;25.90;52.80
25906;DHT22;13713;52.552;13.204;2023-07-20T00:04:46;26.00;52.80
25906;DHT22;13713;52.552;13.204;2023-07-20T00:07:12;26.00;52.80
25906;DHT22;13713;52.552;13.204;2023-07-20T00:09:37;26.00;52.80
25906;DHT22;13713;52.552;13.204;2023-07-20T00:12:03;26.00;52.90
25906;DHT22;13713;52.552;13.204;2023-07-20T00:14:29;25.90;52.90
25906;DHT22;13713;52.552;13.204;2023-07-20T00:16:55;25.90;52.80
25906;DHT22;13713;52.552;13.204;2023-07-20T00:19:22;25.90;52.90
25906;DHT22;13713;52.552;13.204;2023-07-20T00:21:48;25.90;52.90
25906;DHT22;13713;52.552;13.204;2023-07-20T00:24:14;26.00;52.90
25906;DHT22;13713;52.552;13.204;2023-07-20T00:26:40;25.90;52.90
25906;DHT22;13713;52.552;13.204;2023-07-20T00:29:05;25.90;53.00
25906;DHT22;13713;52.552;13.204;2023-07-20T00:31:31;25.90;53.00
25906;DHT22;13713;52.552;13.204;2023-07-20T00:33:56;25.90;53.00
25906;DHT22;13713;52.552;13.204;2023-07-20T00:36:22;25.90;53.00
25906;DHT22;13713;52.552;13.204;2023-07-20T00:38:48;25.90;53.00
25906;DHT22;13713;52.552;13.204;2023-07-20T00:41:15;25.90;53.00
25906;DHT22;13713;52.552;13.204;2023-07-20T00:43:41;25.90;53.00
25906;DHT22;13713;52.552;13.204;2023-07-20T00:46:07;25.90;53.00
25906;DHT22;13713;52.552;13.204;2023-07-20T00:48:33;25.90;53.00
25906;DHT22;13713;52.552;13.204;2023-07-20T00:50:59;25.90;53.00
25906;DHT22;13713;52.552;13.204;2023-07-20T00:53:25;25.90;53.00
25906;DHT22;13713;52.552;13.204;2023-07-20T00:55:52;25.90;53.10
25906;DHT22;13713;52.552;13.204;2023-07-20T00:58:18;25.90;53.00
25906;DHT22;13713;52.552;13.204;2023-07-20T01:00:44;25.90;53.00
25906;DHT22;13713;52.552;13.204;2023-07-20T01:03:10;25.80;53.00
25906;DHT22;13713;52.552;13.204;2023-07-20T01:05:38;25.80;53.00
25906;DHT22;13713;52.552;13.204;2023-07-20T01:08:17;25.80;53.00
25906;DHT22;13713;52.552;13.204;2023-07-20T01:10:57;25.80;53.00
25906;DHT22;13713;52.552;13.204;2023-07-20T01:13:24;25.90;53.10
25906;DHT22;13713;52.552;13.204;2023-07-20T01:16:01;25.80;53.00
25906;DHT22;13713;52.552;13.204;2023-07-20T01:18:27;25.80;53.00
25906;DHT22;13713;52.552;13.204;2023-07-20T01:21:12;25.80;53.10
25906;DHT22;13713;52.552;13.204;2023-07-20T01:26:08;25.80;53.10
25906;DHT22;13713;52.552;13.204;2023-07-20T01:28:56;25.80;53.00
25906;DHT22;13713;52.552;13.204;2023-07-20T01:31:32;25.80;53.10
25906;DHT22;13713;52.552;13.204;2023-07-20T01:34:00;25.80;53.10
25906;DHT22;13713;52.552;13.204;2023-07-20T01:36:28;25.80;53.10
25906;DHT22;13713;52.552;13.204;2023-07-20T01:38:54;25.80;53.10
25906;DHT22;13713;52.552;13.204;2023-07-20T01:41:21;25.80;53.10
25906;DHT22;13713;52.552;13.204;2023-07-20T01:43:47;25.80;53.10
25906;DHT22;13713;52.552;13.204;2023-07-20T01:46:12;25.80;53.10
25906;DHT22;13713;52.552;13.204;2023-07-20T01:48:38;25.80;53.10
25906;DHT22;13713;52.552;13.204;2023-07-20T01:51:04;25.80;53.10
25906;DHT22;13713;52.552;13.204;2023-07-20T01:53:29;25.80;53.10
25906;DHT22;13713;52.552;13.204;2023-07-20T01:55:56;25.80;53.10
25906;DHT22;13713;52.552;13.204;2023-07-20T01:58:21;25.80;53.10
25906;DHT22;13713;52.552;13.204;2023-07-20T02:00:47;25.80;53.10
25906;DHT22;13713;52.552;13.204;2023-07-20T02:03:12;25.80;53.10
25906;DHT22;13713;52.552;13.204;2023-07-20T02:05:38;25.80;53.20
25906;DHT22;13713;52.552;13.204;2023-07-20T02:08:04;25.80;53.20
25906;DHT22;13713;52.552;13.204;2023-07-20T02:10:30;25.80;53.20
25906;DHT22;13713;52.552;13.204;2023-07-20T02:12:55;25.70;53.20
25906;DHT22;13713;52.552;13.204;2023-07-20T02:15:21;25.80;53.20
25906;DHT22;13713;52.552;13.204;2023-07-20T02:17:47;25.80;53.20
25906;DHT22;13713;52.552;13.204;2023-07-20T02:20:13;25.80;53.20
25906;DHT22;13713;52.552;13.204;2023-07-20T02:22:39;25.70;53.20
25906;DHT22;13713;52.552;13.204;2023-07-20T02:25:05;25.70;53.30
25906;DHT22;13713;52.552;13.204;2023-07-20T02:27:31;25.70;53.30
25906;DHT22;13713;52.552;13.204;2023-07-20T02:29:56;25.80;53.30
25906;DHT22;13713;52.552;13.204;2023-07-20T02:32:22;25.70;53.30
25906;DHT22;13713;52.552;13.204;2023-07-20T02:34:48;25.70;53.30
25906;DHT22;13713;52.552;13.204;2023-07-20T02:37:13;25.70;53.20
25906;DHT22;13713;52.552;13.204;2023-07-20T02:39:39;25.70;53.30
25906;DHT22;13713;52.552;13.204;2023-07-20T02:42:05;25.70;53.30
25906;DHT22;13713;52.552;13.204;2023-07-20T02:44:31;25.70;53.30
25906;DHT22;13713;52.552;13.204;2023-07-20T02:46:56;25.70;53.30
25906;DHT22;13713;52.552;13.204;2023-07-20T02:49:22;25.70;53.90
25906;DHT22;13713;52.552;13.204;2023-07-20T02:51:47;25.70;53.40
25906;DHT22;13713;52.552;13.204;2023-07-20T02:54:13;25.70;53.30
25906;DHT22;13713;52.552;13.204;2023-07-20T02:56:39;25.70;53.30
25906;DHT22;13713;52.552;13.204;2023-07-20T02:59:04;25.70;53.40
25906;DHT22;13713;52.552;13.204;2023-07-20T03:01:30;25.70;53.40
25906;DHT22;13713;52.552;13.204;2023-07-20T03:03:55;25.70;53.40
25906;DHT22;13713;52.552;13.204;2023-07-20T03:06:21;25.70;53.40
25906;DHT22;13713;52.552;13.204;2023-07-20T03:08:47;25.70;53.40
25906;DHT22;13713;52.552;13.204;2023-07-20T03:11:14;25.70;53.40
25906;DHT22;13713;52.552;13.204;2023-07-20T03:13:41;25.70;53.40
25906;DHT22;13713;52.552;13.204;2023-07-20T03:16:08;25.70;53.50
25906;DHT22;13713;52.552;13.204;2023-07-20T03:18:37;25.70;53.40
25906;DHT22;13713;52.552;13.204;2023-07-20T03:21:03;25.70;53.50
25906;DHT22;13713;52.552;13.204;2023-07-20T03:23:29;25.70;53.50
25906;DHT22;13713;52.552;13.204;2023-07-20T03:25:55;25.70;53.50
25906;DHT22;13713;52.552;13.204;2023-07-20T03:28:22;25.70;53.60
25906;DHT22;13713;52.552;13.204;2023-07-20T03:30:56;25.70;53.50
25906;DHT22;13713;52.552;13.204;2023-07-20T03:33:26;25.60;53.50
25906;DHT22;13713;52.552;13.204;2023-07-20T03:35:52;25.60;53.50
25906;DHT22;13713;52.552;13.204;2023-07-20T03:38:18;25.60;53.40
25906;DHT22;13713;52.552;13.204;2023-07-20T03:43:17;25.60;53.40
25906;DHT22;13713;52.552;13.204;2023-07-20T03:45:42;25.60;53.40
25906;DHT22;13713;52.552;13.204;2023-07-20T03:48:08;25.60;54.00
25906;DHT22;13713;52.552;13.204;2023-07-20T03:50:33;25.60;53.50
25906;DHT22;13713;52.552;13.204;2023-07-20T03:52:59;25.60;53.40
25906;DHT22;13713;52.552;13.204;2023-07-20T03:55:25;25.60;53.50
25906;DHT22;13713;52.552;13.204;2023-07-20T03:57:50;25.60;53.50
25906;DHT22;13713;52.552;13.204;2023-07-20T04:00:16;25.60;53.50
25906;DHT22;13713;52.552;13.204;2023-07-20T04:02:42;25.60;53.50
25906;DHT22;13713;52.552;13.204;2023-07-20T04:05:08;25.60;53.50
25906;DHT22;13713;52.552;13.204;2023-07-20T04:07:33;25.60;53.50
25906;DHT22;13713;52.552;13.204;2023-07-20T04:09:59;25.60;53.60
25906;DHT22;13713;52.552;13.204;2023-07-20T04:12:24;25.60;53.60
25906;DHT22;13713;52.552;13.204;2023-07-20T04:14:50;25.60;53.60
25906;DHT22;13713;52.552;13.204;2023-07-20T04:17:16;25.60;53.60
25906;DHT22;13713;52.552;13.204;2023-07-20T04:19:41;25.60;53.70
25906;DHT22;13713;52.552;13.204;2023-07-20T04:22:08;25.60;53.70
25906;DHT22;13713;52.552;13.204;2023-07-20T04:24:33;25.60;53.70
25906;DHT22;13713;52.552;13.204;2023-07-20T04:26:59;25.50;53.60
25906;DHT22;13713;52.552;13.204;2023-07-20T04:29:25;25.50;53.60
25906;DHT22;13713;52.552;13.204;2023-07-20T04:31:50;25.50;53.60
25906;DHT22;13713;52.552;13.204;2023-07-20T04:34:16;25.50;53.60
25906;DHT22;13713;52.552;13.204;2023-07-20T04:36:43;25.50;53.70
25906;DHT22;13713;52.552;13.204;2023-07-20T04:39:09;25.50;53.60
25906;DHT22;13713;52.552;13.204;2023-07-20T04:41:39;25.50;53.70
25906;DHT22;13713;52.552;13.204;2023-07-20T04:44:05;25.50;53.60
25906;DHT22;13713;52.552;13.204;2023-07-20T04:46:30;25.50;53.70
25906;DHT22;13713;52.552;13.204;2023-07-20T04:48:58;25.50;53.70
25906;DHT22;13713;52.552;13.204;2023-07-20T04:51:25;25.50;53.70
25906;DHT22;13713;52.552;13.204;2023-07-20T04:53:54;25.50;53.70
25906;DHT22;13713;52.552;13.204;2023-07-20T04:56:19;25.50;53.70
25906;DHT22;13713;52.552;13.204;2023-07-20T04:58:46;25.50;53.70
25906;DHT22;13713;52.552;13.204;2023-07-20T05:01:12;25.50;53.70
25906;DHT22;13713;52.552;13.204;2023-07-20T05:03:38;25.50;53.70
25906;DHT22;13713;52.552;13.204;2023-07-20T05:06:06;25.50;53.70
25906;DHT22;13713;52.552;13.204;2023-07-20T05:08:31;25.50;53.70
25906;DHT22;13713;52.552;13.204;2023-07-20T05:10:59;25.50;53.70
25906;DHT22;13713;52.552;13.204;2023-07-20T05:13:24;25.50;53.70
25906;DHT22;13713;52.552;13.204;2023-07-20T05:15:51;25.50;53.70
25906;DHT22;13713;52.552;13.204;2023-07-20T05:18:17;25.50;53.70
25906;DHT22;13713;52.552;13.204;2023-07-20T05:20:46;25.50;53.70
25906;DHT22;13713;52.552;13.204;2023-07-20T05:23:12;25.50;53.80
25906;DHT22;13713;52.552;13.204;2023-07-20T05:25:38;25.50;53.80
25906;DHT22;13713;52.552;13.204;2023-07-20T05:28:04;25.50;53.80
25906;DHT22;13713;52.552;13.204;2023-07-20T05:30:30;25.50;53.80
25906;DHT22;13713;52.552;13.204;2023-07-20T05:32:55;25.50;53.80
25906;DHT22;13713;52.552;13.204;2023-07-20T05:35:21;25.50;53.80
25906;DHT22;13713;52.552;13.204;2023-07-20T05:37:47;25.50;53.80
25906;DHT22;13713;52.552;13.204;2023-07-20T05:40:14;25.50;53.80
25906;DHT22;13713;52.552;13.204;2023-07-20T05:42:40;25.40;53.90
25906;DHT22;13713;52.552;13.204;2023-07-20T05:45:05;25.40;53.90
25906;DHT22;13713;52.552;13.204;2023-07-20T05:47:31;25.40;54.00
25906;DHT22;13713;52.552;13.204;2023-07-20T05:49:57;25.30;54.00
25906;DHT22;13713;52.552;13.204;2023-07-20T05:52:23;25.30;54.10
25906;DHT22;13713;52.552;13.204;2023-07-20T05:54:48;25.30;54.20
25906;DHT22;13713;52.552;13.204;2023-07-20T05:57:14;25.20;54.40
25906;DHT22;13713;52.552;13.204;2023-07-20T05:59:40;25.20;54.50
25906;DHT22;13713;52.552;13.204;2023-07-20T06:02:09;25.10;54.40
25906;DHT22;13713;52.552;13.204;2023-07-20T06:04:35;25.00;54.30
25906;DHT22;13713;52.552;13.204;2023-07-20T06:07:00;25.00;54.40
25906;DHT22;13713;52.552;13.204;2023-07-20T06:09:26;25.00;54.60
25906;DHT22;13713;52.552;13.204;2023-07-20T06:11:52;24.90;54.50
25906;DHT22;13713;52.552;13.204;2023-07-20T06:14:18;24.90;54.60
25906;DHT22;13713;52.552;13.204;2023-07-20T06:16:44;24.90;54.60
25906;DHT22;13713;52.552;13.204;2023-07-20T06:19:09;24.80;54.70
25906;DHT22;13713;52.552;13.204;2023-07-20T06:21:37;24.80;54.80
25906;DHT22;13713;52.552;13.204;2023-07-20T06:24:03;24.70;54.90
25906;DHT22;13713;52.552;13.204;2023-07-20T06:26:29;24.70;54.70
25906;DHT22;13713;52.552;13.204;2023-07-20T06:28:55;24.70;54.90
25906;DHT22;13713;52.552;13.204;2023-07-20T06:31:21;24.60;54.80
25906;DHT22;13713;52.552;13.204;2023-07-20T06:33:47;24.60;54.80
25906;DHT22;13713;52.552;13.204;2023-07-20T06:36:12;24.60;54.90
25906;DHT22;13713;52.552;13.204;2023-07-20T06:38:38;24.50;54.90
25906;DHT22;13713;52.552;13.204;2023-07-20T06:41:03;24.50;54.80
25906;DHT22;13713;52.552;13.204;2023-07-20T06:43:29;24.50;55.00
25906;DHT22;13713;52.552;13.204;2023-07-20T06:45:55;24.50;54.90
25906;DHT22;13713;52.552;13.204;2023-07-20T06:48:21;24.50;54.90
25906;DHT22;13713;52.552;13.204;2023-07-20T06:50:46;24.50;54.90
25906;DHT22;13713;52.552;13.204;2023-07-20T06:53:12;24.40;54.80
25906;DHT22;13713;52.552;13.204;2023-07-20T06:55:38;24.40;54.70
25906;DHT22;13713;52.552;13.204;2023-07-20T06:58:04;24.40;54.70
25906;DHT22;13713;52.552;13.204;2023-07-20T07:00:30;24.40;54.70
25906;DHT22;13713;52.552;13.204;2023-07-20T07:02:56;24.40;54.60
25906;DHT22;13713;52.552;13.204;2023-07-20T07:05:21;24.40;55.20
25906;DHT22;13713;52.552;13.204;2023-07-20T07:07:47;24.30;54.50
25906;DHT22;13713;52.552;13.204;2023-07-20T07:10:13;24.30;54.60
25906;DHT22;13713;52.552;13.204;2023-07-20T07:12:39;24.30;54.50
25906;DHT22;13713;52.552;13.204;2023-07-20T07:15:05;24.30;54.60
25906;DHT22;13713;52.552;13.204;2023-07-20T07:17:34;24.30;54.60
25906;DHT22;13713;52.552;13.204;2023-07-20T07:20:00;24.30;54.50
25906;DHT22;13713;52.552;13.204;2023-07-20T07:22:26;24.30;55.10
25906;DHT22;13713;52.552;13.204;2023-07-20T07:24:51;24.30;54.40
25906;DHT22;13713;52.552;13.204;2023-07-20T07:27:17;24.30;54.40
25906;DHT22;13713;52.552;13.204;2023-07-20T07:29:43;24.30;54.30
25906;DHT22;13713;52.552;13.204;2023-07-20T07:32:12;24.30;54.30
25906;DHT22;13713;52.552;13.204;2023-07-20T07:34:38;24.20;54.80
25906;DHT22;13713;52.552;13.204;2023-07-20T07:37:04;24.30;54.20
25906;DHT22;13713;52.552;13.204;2023-07-20T07:39:30;24.30;54.20
25906;DHT22;13713;52.552;13.204;2023-07-20T07:41:56;24.30;54.20
25906;DHT22;13713;52.552;13.204;2023-07-20T07:44:22;24.20;54.10
25906;DHT22;13713;52.552;13.204;2023-07-20T07:46:47;24.20;54.00
25906;DHT22;13713;52.552;13.204;2023-07-20T07:49:14;24.20;53.90
25906;DHT22;13713;52.552;13.204;2023-07-20T07:51:40;24.20;53.90
25906;DHT22;13713;52.552;13.204;2023-07-20T07:54:05;24.20;53.90
25906;DHT22;13713;52.552;13.204;2023-07-20T07:56:31;24.20;53.80
25906;DHT22;13713;52.552;13.204;2023-07-20T07:58:56;24.20;53.80
25906;DHT22;13713;52.552;13.204;2023-07-20T08:01:22;24.20;53.70
25906;DHT22;13713;52.552;13.204;2023-07-20T08:03:48;24.20;53.60
25906;DHT22;13713;52.552;13.204;2023-07-20T08:06:13;24.10;53.60
25906;DHT22;13713;52.552;13.204;2023-07-20T08:08:39;24.10;53.60
25906;DHT22;13713;52.552;13.204;2023-07-20T08:11:05;24.10;53.60
25906;DHT22;13713;52.552;13.204;2023-07-20T08:13:31;24.00;53.60
25906;DHT22;13713;52.552;13.204;2023-07-20T08:15:57;24.00;53.60
25906;DHT22;13713;52.552;13.204;2023-07-20T08:18:22;24.00;53.50
25906;DHT22;13713;52.552;13.204;2023-07-20T08:20:48;24.00;53.50
25906;DHT22;13713;52.552;13.204;2023-07-20T08:23:14;24.00;53.50
25906;DHT22;13713;52.552;13.204;2023-07-20T08:25:40;24.00;53.50
25906;DHT22;13713;52.552;13.204;2023-07-20T08:28:13;24.00;53.40
25906;DHT22;13713;52.552;13.204;2023-07-20T08:30:39;24.00;53.40
25906;DHT22;13713;52.552;13.204;2023-07-20T08:33:05;24.00;53.40
25906;DHT22;13713;52.552;13.204;2023-07-20T08:35:31;24.00;53.30
25906;DHT22;13713;52.552;13.204;2023-07-20T08:37:56;23.90;53.20
25906;DHT22;13713;52.552;13.204;2023-07-20T08:40:22;23.90;53.10
25906;DHT22;13713;52.552;13.204;2023-07-20T08:42:47;23.90;53.10
25906;DHT22;13713;52.552;13.204;2023-07-20T08:45:13;23.90;53.10
25906;DHT22;13713;52.552;13.204;2023-07-20T08:47:39;23.90;53.00
25906;DHT22;13713;52.552;13.204;2023-07-20T08:50:06;23.90;53.00
25906;DHT22;13713;52.552;13.204;2023-07-20T08:52:33;23.90;53.00
25906;DHT22;13713;52.552;13.204;2023-07-20T08:54:59;23.90;53.00
25906;DHT22;13713;52.552;13.204;2023-07-20T08:57:28;23.90;53.00
25906;DHT22;13713;52.552;13.204;2023-07-20T08:59:54;23.90;52.90
25906;DHT22;13713;52.552;13.204;2023-07-20T09:02:20;23.90;52.90
25906;DHT22;13713;52.552;13.204;2023-07-20T09:04:48;23.90;52.90
25906;DHT22;13713;52.552;13.204;2023-07-20T09:07:13;23.90;52.90
25906;DHT22;13713;52.552;13.204;2023-07-20T09:09:40;23.90;52.90
25906;DHT22;13713;52.552;13.204;2023-07-20T09:12:12;23.90;52.90
25906;DHT22;13713;52.552;13.204;2023-07-20T09:14:38;23.90;52.80
25906;DHT22;13713;52.552;13.204;2023-07-20T09:17:03;23.90;52.80
25906;DHT22;13713;52.552;13.204;2023-07-20T09:19:29;23.90;52.80
25906;DHT22;13713;52.552;13.204;2023-07-20T09:21:55;23.90;52.80
25906;DHT22;13713;52.552;13.204;2023-07-20T09:24:20;23.80;52.60
25906;DHT22;13713;52.552;13.204;2023-07-20T09:26:47;23.90;52.70
25906;DHT22;13713;52.552;13.204;2023-07-20T09:29:19;23.90;52.60
25906;DHT22;13713;52.552;13.204;2023-07-20T09:32:04;23.90;52.70
25906;DHT22;13713;52.552;13.204;2023-07-20T09:34:30;23.90;52.70
25906;DHT22;13713;52.552;13.204;2023-07-20T09:36:59;23.80;52.60
25906;DHT22;13713;52.552;13.204;2023-07-20T09:39:26;23.90;52.80
25906;DHT22;13713;52.552;13.204;2023-07-20T09:41:51;23.80;52.80
25906;DHT22;13713;52.552;13.204;2023-07-20T09:44:17;23.80;52.90
25906;DHT22;13713;52.552;13.204;2023-07-20T09:46:49;23.80;53.00
25906;DHT22;13713;52.552;13.204;2023-07-20T09:49:17;23.90;53.20
25906;DHT22;13713;52.552;13.204;2023-07-20T09:51:43;23.80;53.30
25906;DHT22;13713;52.552;13.204;2023-07-20T09:54:09;23.80;53.30
25906;DHT22;13713;52.552;13.204;2023-07-20T09:56:35;23.80;53.50
25906;DHT22;13713;52.552;13.204;2023-07-20T09:59:01;23.80;53.40
25906;DHT22;13713;52.552;13.204;2023-07-20T10:01:27;23.80;53.50
25906;DHT22;13713;52.552;13.204;2023-07-20T10:03:54;23.80;53.50
25906;DHT22;13713;52.552;13.204;2023-07-20T10:06:23;23.70;54.10
25906;DHT22;13713;52.552;13.204;2023-07-20T10:08:49;23.70;53.50
25906;DHT22;13713;52.552;13.204;2023-07-20T10:11:17;23.70;53.50
25906;DHT22;13713;52.552;13.204;2023-07-20T10:13:44;23.70;53.60
25906;DHT22;13713;52.552;13.204;2023-07-20T10:16:11;23.70;53.60
25906;DHT22;13713;52.552;13.204;2023-07-20T10:18:47;23.70;53.50
25906;DHT22;13713;52.552;13.204;2023-07-20T10:21:15;23.60;53.60
25906;DHT22;13713;52.552;13.204;2023-07-20T10:23:42;23.60;53.40
25906;DHT22;13713;52.552;13.204;2023-07-20T10:26:07;23.60;53.40
25906;DHT22;13713;52.552;13.204;2023-07-20T10:28:33;23.60;53.50
25906;DHT22;13713;52.552;13.204;2023-07-20T10:30:59;23.60;53.50
25906;DHT22;13713;52.552;13.204;2023-07-20T10:33:25;23.60;53.60
25906;DHT22;13713;52.552;13.204;2023-07-20T10:35:51;23.60;53.50
25906;DHT22;13713;52.552;13.204;2023-07-20T10:38:17;23.50;53.60
25906;DHT22;13713;52.552;13.204;2023-07-20T10:40:43;23.60;53.60
25906;DHT22;13713;52.552;13.204;2023-07-20T10:43:18;23.50;53.60
25906;DHT22;13713;52.552;13.204;2023-07-20T10:45:51;23.50;53.60
25906;DHT22;13713;52.552;13.204;2023-07-20T10:48:24;23.50;53.60
25906;DHT22;13713;52.552;13.204;2023-07-20T10:51:09;23.50;53.60
25906;DHT22;13713;52.552;13.204;2023-07-20T10:53:34;23.50;53.60
25906;DHT22;13713;52.552;13.204;2023-07-20T10:56:05;23.50;53.60
25906;DHT22;13713;52.552;13.204;2023-07-20T10:58:31;23.50;53.60
25906;DHT22;13713;52.552;13.204;2023-07-20T11:00:57;23.50;53.60
25906;DHT22;13713;52.552;13.204;2023-07-20T11:03:31;23.50;53.60
25906;DHT22;13713;52.552;13.204;2023-07-20T11:05:58;23.50;53.60
25906;DHT22;13713;52.552;13.204;2023-07-20T11:08:42;23.50;53.60
25906;DHT22;13713;52.552;13.204;2023-07-20T11:11:29;23.50;53.50
25906;DHT22;13713;52.552;13.204;2023-07-20T11:19:02;23.50;53.60
25906;DHT22;13713;52.552;13.204;2023-07-20T11:21:28;23.50;53.50
25906;DHT22;13713;52.552;13.204;2023-07-20T11:23:55;23.50;53.50
25906;DHT22;13713;52.552;13.204;2023-07-20T11:26:21;23.50;53.50
25906;DHT22;13713;52.552;13.204;2023-07-20T11:28:50;23.50;53.50
25906;DHT22;13713;52.552;13.204;2023-07-20T11:31:18;23.50;53.50
25906;DHT22;13713;52.552;13.204;2023-07-20T11:33:43;23.60;53.50
25906;DHT22;13713;52.552;13.204;2023-07-20T11:36:09;23.60;53.40
25906;DHT22;13713;52.552;13.204;2023-07-20T11:38:35;23.60;53.30
25906;DHT22;13713;52.552;13.204;2023-07-20T11:41:02;23.60;53.30
25906;DHT22;13713;52.552;13.204;2023-07-20T11:43:28;23.60;53.80
25906;DHT22;13713;52.552;13.204;2023-07-20T11:45:53;23.60;53.20
25906;DHT22;13713;52.552;13.204;2023-07-20T11:48:19;23.60;53.10
25906;DHT22;13713;52.552;13.204;2023-07-20T11:50:44;23.60;53.10
25906;DHT22;13713;52.552;13.204;2023-07-20T11:53:10;23.60;53.10
25906;DHT22;13713;52.552;13.204;2023-07-20T11:55:37;23.50;53.00
25906;DHT22;13713;52.552;13.204;2023-07-20T11:58:07;23.50;53.70
25906;DHT22;13713;52.552;13.204;2023-07-20T12:00:33;23.50;53.20
25906;DHT22;13713;52.552;13.204;2023-07-20T12:02:59;23.50;53.20
25906;DHT22;13713;52.552;13.204;2023-07-20T12:05:25;23.60;53.50
25906;DHT22;13713;52.552;13.204;2023-07-20T12:07:54;23.60;53.60
25906;DHT22;13713;52.552;13.204;2023-07-20T12:10:26;23.50;53.60
25906;DHT22;13713;52.552;13.204;2023-07-20T12:12:52;23.50;53.70
25906;DHT22;13713;52.552;13.204;2023-07-20T12:15:22;23.60;53.90
25906;DHT22;13713;52.552;13.204;2023-07-20T12:17:55;23.50;53.80
25906;DHT22;13713;52.552;13.204;2023-07-20T12:20:24;23.50;53.90
25906;DHT22;13713;52.552;13.204;2023-07-20T12:22:51;23.50;53.90
25906;DHT22;13713;52.552;13.204;2023-07-20T12:25:16;23.50;54.00
25906;DHT22;13713;52.552;13.204;2023-07-20T12:27:44;23.60;54.00
25906;DHT22;13713;52.552;13.204;2023-07-20T12:30:09;23.60;54.10
25906;DHT22;13713;52.552;13.204;2023-07-20T12:32:35;23.60;54.00
25906;DHT22;13713;52.552;13.204;2023-07-20T12:35:01;23.60;54.20
25906;DHT22;13713;52.552;13.204;2023-07-20T12:37:26;23.60;54.00
25906;DHT22;13713;52.552;13.204;2023-07-20T12:39:52;23.60;54.00
25906;DHT22;13713;52.552;13.204;2023-07-20T12:42:18;23.60;53.90
25906;DHT22;13713;52.552;13.204;2023-07-20T12:44:43;23.60;53.90
25906;DHT22;13713;52.552;13.204;2023-07-20T12:47:09;23.50;53.60
25906;DHT22;13713;52.552;13.204;2023-07-20T12:49:35;23.50;53.40
25906;DHT22;13713;52.552;13.204;2023-07-20T12:52:00;23.50;53.30
25906;DHT22;13713;52.552;13.204;2023-07-20T12:54:26;23.50;53.10
25906;DHT22;13713;52.552;13.204;2023-07-20T12:56:52;23.50;52.90
25906;DHT22;13713;52.552;13.204;2023-07-20T12:59:17;23.50;52.70
25906;DHT22;13713;52.552;13.204;2023-07-20T13:01:43;23.50;52.50
25906;DHT22;13713;52.552;13.204;2023-07-20T13:04:09;23.50;52.40
25906;DHT22;13713;52.552;13.204;2023-07-20T13:06:35;23.50;52.20
25906;DHT22;13713;52.552;13.204;2023-07-20T13:09:01;23.50;52.00
25906;DHT22;13713;52.552;13.204;2023-07-20T13:11:27;23.50;51.90
25906;DHT22;13713;52.552;13.204;2023-07-20T13:13:52;23.50;51.50
25906;DHT22;13713;52.552;13.204;2023-07-20T13:16:18;23.50;51.50
25906;DHT22;13713;52.552;13.204;2023-07-20T13:18:44;23.50;51.90
25906;DHT22;13713;52.552;13.204;2023-07-20T13:21:09;23.50;51.30
25906;DHT22;13713;52.552;13.204;2023-07-20T13:23:36;23.50;51.20
25906;DHT22;13713;52.552;13.204;2023-07-20T13:26:02;23.50;51.00
25906;DHT22;13713;52.552;13.204;2023-07-20T13:28:29;23.50;50.90
25906;DHT22;13713;52.552;13.204;2023-07-20T13:30:54;23.60;50.80
25906;DHT22;13713;52.552;13.204;2023-07-20T13:33:20;23.60;50.80
25906;DHT22;13713;52.552;13.204;2023-07-20T13:35:45;23.60;50.60
25906;DHT22;13713;52.552;13.204;2023-07-20T13:38:12;23.60;50.50
25906;DHT22;13713;52.552;13.204;2023-07-20T13:40:37;23.60;50.40
25906;DHT22;13713;52.552;13.204;2023-07-20T13:43:03;23.60;50.40
25906;DHT22;13713;52.552;13.204;2023-07-20T13:45:30;23.60;50.30
25906;DHT22;13713;52.552;13.204;2023-07-20T13:47:55;23.70;50.20
25906;DHT22;13713;52.552;13.204;2023-07-20T13:50:21;23.70;50.20
25906;DHT22;13713;52.552;13.204;2023-07-20T13:52:47;23.70;50.10
25906;DHT22;13713;52.552;13.204;2023-07-20T13:55:12;23.70;49.90
25906;DHT22;13713;52.552;13.204;2023-07-20T13:57:38;23.70;49.80
25906;DHT22;13713;52.552;13.204;2023-07-20T14:00:04;23.70;49.70
25906;DHT22;13713;52.552;13.204;2023-07-20T14:02:37;23.70;49.60
25906;DHT22;13713;52.552;13.204;2023-07-20T14:05:03;23.70;49.60
25906;DHT22;13713;52.552;13.204;2023-07-20T14:07:28;23.80;49.50
25906;DHT22;13713;52.552;13.204;2023-07-20T14:09:54;23.80;49.50
25906;DHT22;13713;52.552;13.204;2023-07-20T14:12:19;23.80;49.40
25906;DHT22;13713;52.552;13.204;2023-07-20T14:14:45;23.80;49.30
25906;DHT22;13713;52.552;13.204;2023-07-20T14:17:11;23.80;49.20
25906;DHT22;13713;52.552;13.204;2023-07-20T14:19:37;23.90;49.30
25906;DHT22;13713;52.552;13.204;2023-07-20T14:22:02;23.90;49.10
25906;DHT22;13713;52.552;13.204;2023-07-20T14:24:29;23.90;49.10
25906;DHT22;13713;52.552;13.204;2023-07-20T14:26:55;23.90;48.90
25906;DHT22;13713;52.552;13.204;2023-07-20T14:29:21;23.90;48.80
25906;DHT22;13713;52.552;13.204;2023-07-20T14:31:46;24.00;48.80
25906;DHT22;13713;52.552;13.204;2023-07-20T14:34:16;23.90;48.60
25906;DHT22;13713;52.552;13.204;2023-07-20T14:36:42;23.90;48.50
25906;DHT22;13713;52.552;13.204;2023-07-20T14:39:07;23.90;48.40
25906;DHT22;13713;52.552;13.204;2023-07-20T14:41:33;23.90;48.40
25906;DHT22;13713;52.552;13.204;2023-07-20T14:43:58;24.00;48.30
25906;DHT22;13713;52.552;13.204;2023-07-20T14:46:24;24.00;48.20
25906;DHT22;13713;52.552;13.204;2023-07-20T14:48:50;24.00;48.00
25906;DHT22;13713;52.552;13.204;2023-07-20T14:51:17;24.00;48.00
25906;DHT22;13713;52.552;13.204;2023-07-20T14:53:42;24.00;48.00
25906;DHT22;13713;52.552;13.204;2023-07-20T14:56:08;24.00;47.90
25906;DHT22;13713;52.552;13.204;2023-07-20T14:58:34;24.00;47.80
25906;DHT22;13713;52.552;13.204;2023-07-20T15:01:00;24.10;47.70
25906;DHT22;13713;52.552;13.204;2023-07-20T15:03:26;24.10;47.60
25906;DHT22;13713;52.552;13.204;2023-07-20T15:05:51;24.10;47.60
25906;DHT22;13713;52.552;13.204;2023-07-20T15:08:17;24.10;47.60
25906;DHT22;13713;52.552;13.204;2023-07-20T15:10:44;24.10;47.60
25906;DHT22;13713;52.552;13.204;2023-07-20T15:13:11;24.10;47.50
25906;DHT22;13713;52.552;13.204;2023-07-20T15:15:37;24.10;47.50
25906;DHT22;13713;52.552;13.204;2023-07-20T15:18:02;24.10;47.40
25906;DHT22;13713;52.552;13.204;2023-07-20T15:20:28;24.10;47.30
25906;DHT22;13713;52.552;13.204;2023-07-20T15:22:53;24.20;47.20